sensor_id;sensor_type;location;lat;lon;timestamp;pressure;altitude;pressure_sealevel;temperature;humidity
13767;BME280;47980;48.794;9.176;2023-07-22T00:00:44;98209.50;;;16.37;83.01
13767;BME280;47980;48.794;9.176;2023-07-22T00:03:16;98205.59;;;16.31;83.39
13767;BME280;47980;48.794;9.176;2023-07-22T00:05:47;98204.78;;;16.27;84.33
13767;BME280;47980;48.794;9.176;2023-07-22T00:08:19;98202.16;;;16.31;83.83
13767;BME280;47980;48.794;9.176;2023-07-22T00:10:50;98208.69;;;16.33;84.45
13767;BME280;47980;48.794;9.176;2023-07-22T00:13:22;98209.06;;;16.32;83.66
13767;BME280;47980;48.794;9.176;2023-07-22T00:15:58;98205.91;;;16.26;84.35
13767;BME280;47980;48.794;9.176;2023-07-22T00:18:30;98208.56;;;16.26;85.25
13767;BME280;47980;48.794;9.176;2023-07-22T00:21:02;98202.16;;;16.31;85.29
13767;BME280;47980;48.794;9.176;2023-07-22T00:23:34;98194.78;;;16.24;84.60
13767;BME280;47980;48.794;9.176;2023-07-22T00:26:05;98196.31;;;16.25;85.42
13767;BME280;47980;48.794;9.176;2023-07-22T00:28:37;98201.13;;;16.12;85.91
13767;BME280;47980;48.794;9.176;2023-07-22T00:31:10;98200.31;;;16.12;87.96
13767;BME280;47980;48.794;9.176;2023-07-22T00:33:42;98205.84;;;16.23;86.32
13767;BME280;47980;48.794;9.176;2023-07-22T00:36:13;98201.34;;;16.27;86.74
13767;BME280;47980;48.794;9.176;2023-07-22T00:38:45;98201.06;;;16.09;88.61
13767;BME280;47980;48.794;9.176;2023-07-22T00:41:16;98197.53;;;16.05;88.47
13767;BME280;47980;48.794;9.176;2023-07-22T00:43:48;98194.22;;;15.88;88.74
13767;BME280;47980;48.794;9.176;2023-07-22T00:46:20;98204.44;;;15.83;89.89
13767;BME280;47980;48.794;9.176;2023-07-22T00:48:52;98201.47;;;15.88;87.99
13767;BME280;47980;48.794;9.176;2023-07-22T00:51:24;98199.50;;;15.85;88.43
13767;BME280;47980;48.794;9.176;2023-07-22T00:53:55;98195.81;;;15.93;89.11
13767;BME280;47980;48.794;9.176;2023-07-22T00:56:31;98200.16;;;16.01;88.51
13767;BME280;47980;48.794;9.176;2023-07-22T00:59:04;98198.53;;;15.97;88.58
13767;BME280;47980;48.794;9.176;2023-07-22T01:01:37;98191.59;;;15.92;89.96
13767;BME280;47980;48.794;9.176;2023-07-22T01:04:09;98183.81;;;15.83;90.42
13767;BME280;47980;48.794;9.176;2023-07-22T01:06:40;98186.38;;;15.76;90.33
13767;BME280;47980;48.794;9.176;2023-07-22T01:09:14;98188.81;;;15.85;90.06
13767;BME280;47980;48.794;9.176;2023-07-22T01:11:45;98182.97;;;15.79;90.25
13767;BME280;47980;48.794;9.176;2023-07-22T01:14:17;98188.38;;;15.83;90.72
13767;BME280;47980;48.794;9.176;2023-07-22T01:16:49;98188.44;;;15.86;89.60
13767;BME280;47980;48.794;9.176;2023-07-22T01:19:21;98185.09;;;15.93;88.77
13767;BME280;47980;48.794;9.176;2023-07-22T01:21:53;98183.56;;;15.92;89.10
13767;BME280;47980;48.794;9.176;2023-07-22T01:24:26;98182.84;;;15.95;88.27
13767;BME280;47980;48.794;9.176;2023-07-22T01:26:58;98176.75;;;15.95;88.86
13767;BME280;47980;48.794;9.176;2023-07-22T01:29:30;98172.81;;;15.88;89.79
13767;BME280;47980;48.794;9.176;2023-07-22T01:32:01;98176.63;;;15.87;90.55
13767;BME280;47980;48.794;9.176;2023-07-22T01:34:33;98179.47;;;15.56;91.05
13767;BME280;47980;48.794;9.176;2023-07-22T01:37:05;98178.22;;;15.69;91.63
13767;BME280;47980;48.794;9.176;2023-07-22T01:39:38;98161.19;;;15.58;92.79
13767;BME280;47980;48.794;9.176;2023-07-22T01:42:10;98156.97;;;15.57;93.35
13767;BME280;47980;48.794;9.176;2023-07-22T01:44:41;98163.94;;;15.61;91.89
13767;BME280;47980;48.794;9.176;2023-07-22T01:47:13;98155.63;;;15.67;92.26
13767;BME280;47980;48.794;9.176;2023-07-22T01:49:44;98164.84;;;15.69;91.15
13767;BME280;47980;48.794;9.176;2023-07-22T01:52:16;98169.59;;;15.79;91.14
13767;BME280;47980;48.794;9.176;2023-07-22T01:54:49;98170.31;;;15.76;91.90
13767;BME280;47980;48.794;9.176;2023-07-22T01:57:20;98170.16;;;15.66;92.39
13767;BME280;47980;48.794;9.176;2023-07-22T01:59:52;98173.78;;;15.57;93.67
13767;BME280;47980;48.794;9.176;2023-07-22T02:02:24;98170.75;;;15.59;93.31
13767;BME280;47980;48.794;9.176;2023-07-22T02:04:56;98167.63;;;15.34;95.03
13767;BME280;47980;48.794;9.176;2023-07-22T02:07:27;98162.81;;;15.43;95.43
13767;BME280;47980;48.794;9.176;2023-07-22T02:10:00;98163.69;;;15.47;95.14
13767;BME280;47980;48.794;9.176;2023-07-22T02:12:32;98169.03;;;15.47;95.26
13767;BME280;47980;48.794;9.176;2023-07-22T02:15:04;98165.63;;;15.50;93.83
13767;BME280;47980;48.794;9.176;2023-07-22T02:17:36;98169.44;;;15.49;94.58
13767;BME280;47980;48.794;9.176;2023-07-22T02:20:08;98170.50;;;15.45;95.61
13767;BME280;47980;48.794;9.176;2023-07-22T02:22:40;98175.47;;;15.46;93.85
13767;BME280;47980;48.794;9.176;2023-07-22T02:25:13;98172.81;;;15.46;93.94
13767;BME280;47980;48.794;9.176;2023-07-22T02:27:45;98181.72;;;15.54;93.65
13767;BME280;47980;48.794;9.176;2023-07-22T02:30:16;98178.22;;;15.50;94.10
13767;BME280;47980;48.794;9.176;2023-07-22T02:32:48;98178.47;;;15.41;93.30
13767;BME280;47980;48.794;9.176;2023-07-22T02:35:19;98182.19;;;15.36;94.79
13767;BME280;47980;48.794;9.176;2023-07-22T02:37:51;98180.22;;;15.33;94.46
13767;BME280;47980;48.794;9.176;2023-07-22T02:40:24;98182.91;;;15.33;95.25
13767;BME280;47980;48.794;9.176;2023-07-22T02:42:55;98185.22;;;15.35;94.53
13767;BME280;47980;48.794;9.176;2023-07-22T02:45:27;98190.50;;;15.31;94.51
13767;BME280;47980;48.794;9.176;2023-07-22T02:47:58;98181.22;;;15.25;95.11
13767;BME280;47980;48.794;9.176;2023-07-22T02:50:31;98178.56;;;15.25;96.13
13767;BME280;47980;48.794;9.176;2023-07-22T02:53:03;98181.94;;;15.22;96.64
13767;BME280;47980;48.794;9.176;2023-07-22T02:55:36;98183.09;;;15.25;96.32
13767;BME280;47980;48.794;9.176;2023-07-22T02:58:07;98180.16;;;15.30;94.22
13767;BME280;47980;48.794;9.176;2023-07-22T03:00:39;98180.28;;;15.17;95.29
13767;BME280;47980;48.794;9.176;2023-07-22T03:03:10;98176.84;;;15.17;96.04
13767;BME280;47980;48.794;9.176;2023-07-22T03:05:41;98177.63;;;15.17;95.56
13767;BME280;47980;48.794;9.176;2023-07-22T03:08:13;98174.81;;;15.10;96.18
13767;BME280;47980;48.794;9.176;2023-07-22T03:10:46;98173.69;;;14.92;97.50
13767;BME280;47980;48.794;9.176;2023-07-22T03:13:18;98178.69;;;14.93;97.06
13767;BME280;47980;48.794;9.176;2023-07-22T03:15:50;98185.94;;;14.93;97.85
13767;BME280;47980;48.794;9.176;2023-07-22T03:18:22;98175.44;;;14.84;97.23
13767;BME280;47980;48.794;9.176;2023-07-22T03:20:53;98178.19;;;14.88;98.54
13767;BME280;47980;48.794;9.176;2023-07-22T03:23:25;98178.03;;;14.81;97.68
13767;BME280;47980;48.794;9.176;2023-07-22T03:25:58;98169.53;;;14.75;98.64
13767;BME280;47980;48.794;9.176;2023-07-22T03:28:29;98168.13;;;14.81;100.00
13767;BME280;47980;48.794;9.176;2023-07-22T03:31:01;98176.56;;;14.83;99.08
13767;BME280;47980;48.794;9.176;2023-07-22T03:33:32;98175.59;;;14.91;98.57
13767;BME280;47980;48.794;9.176;2023-07-22T03:36:05;98169.34;;;14.84;99.61
13767;BME280;47980;48.794;9.176;2023-07-22T03:38:37;98171.22;;;14.83;99.09
13767;BME280;47980;48.794;9.176;2023-07-22T03:41:09;98177.34;;;14.84;99.40
13767;BME280;47980;48.794;9.176;2023-07-22T03:43:41;98174.34;;;14.85;99.93
13767;BME280;47980;48.794;9.176;2023-07-22T03:46:13;98171.94;;;14.80;98.74
13767;BME280;47980;48.794;9.176;2023-07-22T03:48:45;98180.16;;;14.91;96.77
13767;BME280;47980;48.794;9.176;2023-07-22T03:51:16;98178.41;;;14.99;96.21
13767;BME280;47980;48.794;9.176;2023-07-22T03:53:48;98176.56;;;15.03;94.95
13767;BME280;47980;48.794;9.176;2023-07-22T03:56:21;98178.41;;;14.99;94.93
13767;BME280;47980;48.794;9.176;2023-07-22T03:58:54;98178.41;;;14.99;95.54
13767;BME280;47980;48.794;9.176;2023-07-22T04:01:25;98185.50;;;15.10;93.71
13767;BME280;47980;48.794;9.176;2023-07-22T04:03:59;98184.44;;;15.34;92.76
13767;BME280;47980;48.794;9.176;2023-07-22T04:06:30;98183.91;;;16.13;87.20
13767;BME280;47980;48.794;9.176;2023-07-22T04:09:02;98180.19;;;15.95;85.21
13767;BME280;47980;48.794;9.176;2023-07-22T04:11:35;98175.13;;;15.90;87.14
13767;BME280;47980;48.794;9.176;2023-07-22T04:14:06;98168.22;;;15.89;85.69
13767;BME280;47980;48.794;9.176;2023-07-22T04:16:38;98174.19;;;16.02;85.60
13767;BME280;47980;48.794;9.176;2023-07-22T04:19:09;98177.97;;;16.24;86.38
13767;BME280;47980;48.794;9.176;2023-07-22T04:21:41;98178.22;;;16.42;85.42
13767;BME280;47980;48.794;9.176;2023-07-22T04:24:12;98174.59;;;16.57;84.09
13767;BME280;47980;48.794;9.176;2023-07-22T04:26:45;98175.53;;;16.42;84.14
13767;BME280;47980;48.794;9.176;2023-07-22T04:29:17;98173.22;;;16.67;81.75
13767;BME280;47980;48.794;9.176;2023-07-22T04:31:48;98177.41;;;17.28;79.30
13767;BME280;47980;48.794;9.176;2023-07-22T04:34:20;98174.22;;;17.52;77.25
13767;BME280;47980;48.794;9.176;2023-07-22T04:36:51;98177.94;;;17.41;76.91
13767;BME280;47980;48.794;9.176;2023-07-22T04:39:23;98170.84;;;17.22;78.35
13767;BME280;47980;48.794;9.176;2023-07-22T04:41:55;98177.19;;;17.10;79.14
13767;BME280;47980;48.794;9.176;2023-07-22T04:44:27;98172.41;;;16.93;79.82
13767;BME280;47980;48.794;9.176;2023-07-22T04:46:58;98172.38;;;16.89;80.88
13767;BME280;47980;48.794;9.176;2023-07-22T04:49:30;98169.63;;;17.16;80.00
13767;BME280;47980;48.794;9.176;2023-07-22T04:52:02;98174.06;;;17.04;80.30
13767;BME280;47980;48.794;9.176;2023-07-22T04:54:33;98163.88;;;17.17;79.28
13767;BME280;47980;48.794;9.176;2023-07-22T04:57:06;98174.09;;;17.42;78.48
13767;BME280;47980;48.794;9.176;2023-07-22T04:59:38;98181.44;;;17.48;78.55
13767;BME280;47980;48.794;9.176;2023-07-22T05:02:09;98185.91;;;16.73;83.56
13767;BME280;47980;48.794;9.176;2023-07-22T05:04:41;98181.16;;;17.20;80.77
13767;BME280;47980;48.794;9.176;2023-07-22T05:07:12;98181.47;;;17.52;78.71
13767;BME280;47980;48.794;9.176;2023-07-22T05:09:44;98182.56;;;17.44;77.73
13767;BME280;47980;48.794;9.176;2023-07-22T05:12:16;98175.06;;;17.64;76.81
13767;BME280;47980;48.794;9.176;2023-07-22T05:14:48;98179.66;;;17.60;76.52
13767;BME280;47980;48.794;9.176;2023-07-22T05:17:20;98186.19;;;17.62;74.88
13767;BME280;47980;48.794;9.176;2023-07-22T05:19:51;98191.00;;;17.46;77.46
13767;BME280;47980;48.794;9.176;2023-07-22T05:22:23;98185.22;;;17.40;76.69
13767;BME280;47980;48.794;9.176;2023-07-22T05:24:55;98184.19;;;17.93;75.80
13767;BME280;47980;48.794;9.176;2023-07-22T05:27:29;98192.06;;;18.16;74.39
13767;BME280;47980;48.794;9.176;2023-07-22T05:30:00;98190.78;;;18.02;73.99
13767;BME280;47980;48.794;9.176;2023-07-22T05:32:32;98187.84;;;18.18;73.03
13767;BME280;47980;48.794;9.176;2023-07-22T05:35:04;98187.22;;;17.50;77.88
13767;BME280;47980;48.794;9.176;2023-07-22T05:37:35;98186.22;;;18.07;73.85
13767;BME280;47980;48.794;9.176;2023-07-22T05:40:08;98187.22;;;18.39;73.15
13767;BME280;47980;48.794;9.176;2023-07-22T05:42:41;98196.28;;;18.72;71.22
13767;BME280;47980;48.794;9.176;2023-07-22T05:45:13;98195.38;;;18.57;71.88
13767;BME280;47980;48.794;9.176;2023-07-22T05:47:46;98199.97;;;17.98;73.41
13767;BME280;47980;48.794;9.176;2023-07-22T05:50:17;98202.34;;;18.65;70.91
13767;BME280;47980;48.794;9.176;2023-07-22T05:52:49;98203.69;;;18.34;72.91
13767;BME280;47980;48.794;9.176;2023-07-22T05:55:20;98201.50;;;17.58;77.27
13767;BME280;47980;48.794;9.176;2023-07-22T05:57:53;98203.25;;;18.28;72.51
13767;BME280;47980;48.794;9.176;2023-07-22T06:00:25;98219.63;;;18.64;71.16
13767;BME280;47980;48.794;9.176;2023-07-22T06:02:56;98229.38;;;18.90;70.59
13767;BME280;47980;48.794;9.176;2023-07-22T06:05:28;98223.66;;;18.37;72.00
13767;BME280;47980;48.794;9.176;2023-07-22T06:07:59;98225.41;;;18.70;71.88
13767;BME280;47980;48.794;9.176;2023-07-22T06:10:31;98231.75;;;19.03;69.24
13767;BME280;47980;48.794;9.176;2023-07-22T06:13:04;98243.66;;;19.02;69.38
13767;BME280;47980;48.794;9.176;2023-07-22T06:15:36;98235.53;;;18.91;69.59
13767;BME280;47980;48.794;9.176;2023-07-22T06:18:07;98238.84;;;19.39;67.45
13767;BME280;47980;48.794;9.176;2023-07-22T06:20:39;98232.81;;;18.87;70.10
13767;BME280;47980;48.794;9.176;2023-07-22T06:23:10;98235.41;;;19.60;67.89
13767;BME280;47980;48.794;9.176;2023-07-22T06:25:42;98241.13;;;19.41;68.46
13767;BME280;47980;48.794;9.176;2023-07-22T06:28:15;98231.88;;;19.38;68.22
13767;BME280;47980;48.794;9.176;2023-07-22T06:30:46;98234.13;;;19.15;67.52
13767;BME280;47980;48.794;9.176;2023-07-22T06:33:18;98242.66;;;18.69;71.92
13767;BME280;47980;48.794;9.176;2023-07-22T06:35:49;98237.88;;;18.92;71.05
13767;BME280;47980;48.794;9.176;2023-07-22T06:38:21;98238.53;;;19.62;68.48
13767;BME280;47980;48.794;9.176;2023-07-22T06:40:52;98241.63;;;19.79;66.25
13767;BME280;47980;48.794;9.176;2023-07-22T06:43:25;98233.59;;;20.04;66.01
13767;BME280;47980;48.794;9.176;2023-07-22T06:45:57;98242.06;;;19.99;66.83
13767;BME280;47980;48.794;9.176;2023-07-22T06:48:30;98236.53;;;19.45;66.38
13767;BME280;47980;48.794;9.176;2023-07-22T06:51:01;98233.59;;;20.50;64.04
13767;BME280;47980;48.794;9.176;2023-07-22T06:53:33;98230.06;;;20.92;62.73
13767;BME280;47980;48.794;9.176;2023-07-22T06:56:04;98228.94;;;20.68;63.60
13767;BME280;47980;48.794;9.176;2023-07-22T06:58:37;98237.06;;;20.61;63.52
13767;BME280;47980;48.794;9.176;2023-07-22T07:01:09;98233.84;;;21.06;61.98
13767;BME280;47980;48.794;9.176;2023-07-22T07:03:40;98237.44;;;20.74;62.23
13767;BME280;47980;48.794;9.176;2023-07-22T07:06:12;98246.59;;;21.02;61.47
13767;BME280;47980;48.794;9.176;2023-07-22T07:08:43;98243.50;;;21.10;61.29
13767;BME280;47980;48.794;9.176;2023-07-22T07:11:15;98241.97;;;20.99;62.52
13767;BME280;47980;48.794;9.176;2023-07-22T07:13:47;98245.47;;;20.96;61.95
13767;BME280;47980;48.794;9.176;2023-07-22T07:16:20;98241.69;;;20.29;65.27
13767;BME280;47980;48.794;9.176;2023-07-22T07:18:52;98239.59;;;21.22;60.89
13767;BME280;47980;48.794;9.176;2023-07-22T07:21:24;98240.22;;;21.58;61.22
13767;BME280;47980;48.794;9.176;2023-07-22T07:23:57;98241.75;;;21.59;60.24
13767;BME280;47980;48.794;9.176;2023-07-22T07:26:28;98237.19;;;21.42;60.41
13767;BME280;47980;48.794;9.176;2023-07-22T07:29:01;98237.84;;;21.64;60.18
13767;BME280;47980;48.794;9.176;2023-07-22T07:31:33;98239.66;;;21.85;60.09
13767;BME280;47980;48.794;9.176;2023-07-22T07:34:04;98245.09;;;21.78;60.14
13767;BME280;47980;48.794;9.176;2023-07-22T07:36:36;98243.50;;;21.91;59.12
13767;BME280;47980;48.794;9.176;2023-07-22T07:39:07;98241.00;;;22.11;58.48
13767;BME280;47980;48.794;9.176;2023-07-22T07:41:39;98240.50;;;21.75;58.91
13767;BME280;47980;48.794;9.176;2023-07-22T07:44:12;98242.47;;;22.30;56.87
13767;BME280;47980;48.794;9.176;2023-07-22T07:46:43;98229.84;;;22.57;56.58
13767;BME280;47980;48.794;9.176;2023-07-22T07:49:15;98226.81;;;22.52;56.68
13767;BME280;47980;48.794;9.176;2023-07-22T07:51:46;98231.31;;;23.03;55.93
13767;BME280;47980;48.794;9.176;2023-07-22T07:54:18;98232.38;;;23.44;54.97
13767;BME280;47980;48.794;9.176;2023-07-22T07:56:49;98235.50;;;23.08;55.82
13767;BME280;47980;48.794;9.176;2023-07-22T07:59:22;98227.66;;;23.21;55.45
13767;BME280;47980;48.794;9.176;2023-07-22T08:01:53;98226.50;;;23.49;54.91
13767;BME280;47980;48.794;9.176;2023-07-22T08:04:25;98230.00;;;24.27;53.16
13767;BME280;47980;48.794;9.176;2023-07-22T08:06:56;98224.75;;;24.63;51.08
13767;BME280;47980;48.794;9.176;2023-07-22T08:09:28;98223.78;;;24.93;49.71
13767;BME280;47980;48.794;9.176;2023-07-22T08:12:01;98227.13;;;24.38;49.14
13767;BME280;47980;48.794;9.176;2023-07-22T08:14:34;98224.78;;;24.36;48.23
13767;BME280;47980;48.794;9.176;2023-07-22T08:17:06;98225.25;;;24.11;49.21
13767;BME280;47980;48.794;9.176;2023-07-22T08:19:37;98214.25;;;24.85;46.90
13767;BME280;47980;48.794;9.176;2023-07-22T08:22:09;98213.84;;;23.69;48.48
13767;BME280;47980;48.794;9.176;2023-07-22T08:24:41;98214.94;;;24.26;48.94
13767;BME280;47980;48.794;9.176;2023-07-22T08:27:12;98202.00;;;24.97;48.54
13767;BME280;47980;48.794;9.176;2023-07-22T08:29:45;98200.13;;;24.94;46.83
13767;BME280;47980;48.794;9.176;2023-07-22T08:32:16;98201.53;;;25.58;45.30
13767;BME280;47980;48.794;9.176;2023-07-22T08:34:48;98198.06;;;25.38;45.22
13767;BME280;47980;48.794;9.176;2023-07-22T08:37:20;98196.28;;;25.67;43.97
13767;BME280;47980;48.794;9.176;2023-07-22T08:39:51;98190.03;;;25.87;44.69
13767;BME280;47980;48.794;9.176;2023-07-22T08:42:23;98203.25;;;25.85;43.73
13767;BME280;47980;48.794;9.176;2023-07-22T08:44:58;98185.06;;;26.31;43.23
13767;BME280;47980;48.794;9.176;2023-07-22T08:47:32;98188.44;;;26.51;41.19
13767;BME280;47980;48.794;9.176;2023-07-22T08:50:06;98183.28;;;25.75;41.32
13767;BME280;47980;48.794;9.176;2023-07-22T08:52:38;98192.13;;;26.12;40.52
13767;BME280;47980;48.794;9.176;2023-07-22T08:55:10;98203.56;;;26.36;43.74
13767;BME280;47980;48.794;9.176;2023-07-22T08:57:42;98205.56;;;26.19;41.91
13767;BME280;47980;48.794;9.176;2023-07-22T09:00:16;98198.31;;;26.29;41.42
13767;BME280;47980;48.794;9.176;2023-07-22T09:02:48;98196.28;;;26.16;38.72
13767;BME280;47980;48.794;9.176;2023-07-22T09:05:20;98199.66;;;24.99;40.33
13767;BME280;47980;48.794;9.176;2023-07-22T09:07:52;98194.88;;;25.59;39.70
13767;BME280;47980;48.794;9.176;2023-07-22T09:10:27;98193.53;;;25.15;42.56
13767;BME280;47980;48.794;9.176;2023-07-22T09:12:59;98192.63;;;23.91;43.18
13767;BME280;47980;48.794;9.176;2023-07-22T09:15:35;98192.19;;;24.63;44.27
13767;BME280;47980;48.794;9.176;2023-07-22T09:18:06;98188.22;;;24.48;43.19
13767;BME280;47980;48.794;9.176;2023-07-22T09:20:38;98210.13;;;24.10;44.18
13767;BME280;47980;48.794;9.176;2023-07-22T09:23:11;98194.28;;;24.56;42.68
13767;BME280;47980;48.794;9.176;2023-07-22T09:25:43;98205.13;;;24.32;46.47
13767;BME280;47980;48.794;9.176;2023-07-22T09:28:14;98195.59;;;24.67;46.11
13767;BME280;47980;48.794;9.176;2023-07-22T09:30:47;98196.47;;;24.17;47.05
13767;BME280;47980;48.794;9.176;2023-07-22T09:33:22;98197.66;;;24.16;47.04
13767;BME280;47980;48.794;9.176;2023-07-22T09:35:54;98203.03;;;23.93;47.18
13767;BME280;47980;48.794;9.176;2023-07-22T09:38:26;98188.25;;;24.88;45.87
13767;BME280;47980;48.794;9.176;2023-07-22T09:40:57;98190.22;;;25.24;43.03
13767;BME280;47980;48.794;9.176;2023-07-22T09:43:30;98198.53;;;25.53;42.08
13767;BME280;47980;48.794;9.176;2023-07-22T09:46:07;98180.06;;;25.64;42.55
13767;BME280;47980;48.794;9.176;2023-07-22T09:48:40;98193.72;;;25.60;40.86
13767;BME280;47980;48.794;9.176;2023-07-22T09:51:13;98183.91;;;26.15;40.30
13767;BME280;47980;48.794;9.176;2023-07-22T09:53:47;98186.00;;;26.24;39.27
13767;BME280;47980;48.794;9.176;2023-07-22T09:56:19;98183.88;;;25.14;40.77
13767;BME280;47980;48.794;9.176;2023-07-22T09:58:51;98183.50;;;25.48;40.49
13767;BME280;47980;48.794;9.176;2023-07-22T10:01:24;98180.09;;;26.58;38.38
13767;BME280;47980;48.794;9.176;2023-07-22T10:03:56;98182.16;;;25.20;39.63
13767;BME280;47980;48.794;9.176;2023-07-22T10:06:29;98173.94;;;25.76;39.23
13767;BME280;47980;48.794;9.176;2023-07-22T10:09:03;98182.50;;;26.40;38.98
13767;BME280;47980;48.794;9.176;2023-07-22T10:11:37;98187.06;;;25.98;37.38
13767;BME280;47980;48.794;9.176;2023-07-22T10:14:10;98183.47;;;25.84;37.86
13767;BME280;47980;48.794;9.176;2023-07-22T10:16:44;98176.44;;;25.34;37.91
13767;BME280;47980;48.794;9.176;2023-07-22T10:19:16;98177.84;;;25.75;39.20
13767;BME280;47980;48.794;9.176;2023-07-22T10:21:48;98176.91;;;25.65;38.72
13767;BME280;47980;48.794;9.176;2023-07-22T10:24:21;98176.34;;;25.90;39.22
13767;BME280;47980;48.794;9.176;2023-07-22T10:26:53;98180.06;;;26.29;37.53
13767;BME280;47980;48.794;9.176;2023-07-22T10:29:25;98175.97;;;25.72;38.38
13767;BME280;47980;48.794;9.176;2023-07-22T10:31:59;98183.97;;;26.12;38.19
13767;BME280;47980;48.794;9.176;2023-07-22T10:34:30;98173.41;;;26.14;37.07
13767;BME280;47980;48.794;9.176;2023-07-22T10:37:02;98179.22;;;26.61;37.39
13767;BME280;47980;48.794;9.176;2023-07-22T10:39:35;98168.41;;;27.42;36.03
13767;BME280;47980;48.794;9.176;2023-07-22T10:42:06;98167.94;;;26.76;36.32
13767;BME280;47980;48.794;9.176;2023-07-22T10:44:38;98164.16;;;27.53;34.32
13767;BME280;47980;48.794;9.176;2023-07-22T10:47:11;98163.00;;;28.02;34.45
13767;BME280;47980;48.794;9.176;2023-07-22T10:50:06;98166.66;;;27.86;35.49
13767;BME280;47980;48.794;9.176;2023-07-22T10:52:39;98158.91;;;27.33;35.44
13767;BME280;47980;48.794;9.176;2023-07-22T10:55:18;98151.78;;;27.87;35.22
13767;BME280;47980;48.794;9.176;2023-07-22T10:57:53;98153.81;;;28.08;36.11
13767;BME280;47980;48.794;9.176;2023-07-22T11:00:29;98137.53;;;27.57;35.92
13767;BME280;47980;48.794;9.176;2023-07-22T11:03:12;98136.66;;;27.48;35.93
13767;BME280;47980;48.794;9.176;2023-07-22T11:05:48;98129.00;;;26.50;37.23
13767;BME280;47980;48.794;9.176;2023-07-22T11:08:37;98145.03;;;26.60;38.33
13767;BME280;47980;48.794;9.176;2023-07-22T11:11:08;98140.72;;;26.01;38.02
13767;BME280;47980;48.794;9.176;2023-07-22T11:13:41;98135.22;;;26.05;38.58
13767;BME280;47980;48.794;9.176;2023-07-22T11:16:13;98145.94;;;25.79;38.22
13767;BME280;47980;48.794;9.176;2023-07-22T11:18:46;98132.44;;;26.21;38.10
13767;BME280;47980;48.794;9.176;2023-07-22T11:21:18;98145.75;;;25.54;40.22
13767;BME280;47980;48.794;9.176;2023-07-22T11:23:49;98139.41;;;25.04;41.27
13767;BME280;47980;48.794;9.176;2023-07-22T11:26:20;98137.34;;;24.72;41.23
13767;BME280;47980;48.794;9.176;2023-07-22T11:28:53;98138.66;;;25.40;40.22
13767;BME280;47980;48.794;9.176;2023-07-22T11:31:30;98128.84;;;26.40;39.14
13767;BME280;47980;48.794;9.176;2023-07-22T11:34:03;98129.50;;;26.74;39.19
13767;BME280;47980;48.794;9.176;2023-07-22T11:36:35;98140.50;;;25.79;40.51
13767;BME280;47980;48.794;9.176;2023-07-22T11:39:08;98129.13;;;26.59;40.10
13767;BME280;47980;48.794;9.176;2023-07-22T11:41:40;98121.63;;;27.30;38.57
13767;BME280;47980;48.794;9.176;2023-07-22T11:44:14;98118.50;;;26.90;38.13
13767;BME280;47980;48.794;9.176;2023-07-22T11:46:52;98117.09;;;26.73;39.78
13767;BME280;47980;48.794;9.176;2023-07-22T11:49:28;98112.25;;;26.35;39.65
13767;BME280;47980;48.794;9.176;2023-07-22T11:52:01;98099.03;;;26.92;39.71
13767;BME280;47980;48.794;9.176;2023-07-22T11:54:34;98104.06;;;27.19;37.82
13767;BME280;47980;48.794;9.176;2023-07-22T11:57:10;98086.41;;;27.10;38.74
13767;BME280;47980;48.794;9.176;2023-07-22T11:59:44;98095.03;;;27.22;38.04
13767;BME280;47980;48.794;9.176;2023-07-22T12:02:17;98082.66;;;27.68;38.24
13767;BME280;47980;48.794;9.176;2023-07-22T12:04:53;98090.28;;;26.71;38.75
13767;BME280;47980;48.794;9.176;2023-07-22T12:07:26;98087.75;;;27.31;38.55
13767;BME280;47980;48.794;9.176;2023-07-22T12:10:00;98077.91;;;27.47;38.66
13767;BME280;47980;48.794;9.176;2023-07-22T12:12:32;98075.19;;;27.47;39.10
13767;BME280;47980;48.794;9.176;2023-07-22T12:15:09;98081.09;;;27.45;37.99
13767;BME280;47980;48.794;9.176;2023-07-22T12:17:45;98078.22;;;26.98;37.90
13767;BME280;47980;48.794;9.176;2023-07-22T12:20:18;98066.88;;;27.50;37.62
13767;BME280;47980;48.794;9.176;2023-07-22T12:22:50;98067.09;;;28.03;36.75
13767;BME280;47980;48.794;9.176;2023-07-22T12:25:22;98054.38;;;28.31;35.37
13767;BME280;47980;48.794;9.176;2023-07-22T12:27:53;98059.22;;;28.27;36.60
13767;BME280;47980;48.794;9.176;2023-07-22T12:30:25;98061.78;;;27.87;36.18
13767;BME280;47980;48.794;9.176;2023-07-22T12:32:58;98059.38;;;27.42;36.43
13767;BME280;47980;48.794;9.176;2023-07-22T12:35:31;98052.38;;;28.01;36.29
13767;BME280;47980;48.794;9.176;2023-07-22T12:38:02;98040.31;;;28.55;35.41
13767;BME280;47980;48.794;9.176;2023-07-22T12:40:33;98042.13;;;28.89;35.86
13767;BME280;47980;48.794;9.176;2023-07-22T12:43:05;98039.41;;;28.89;35.37
13767;BME280;47980;48.794;9.176;2023-07-22T12:45:36;98036.75;;;28.23;35.41
13767;BME280;47980;48.794;9.176;2023-07-22T12:48:09;98033.63;;;28.56;34.50
13767;BME280;47980;48.794;9.176;2023-07-22T12:50:42;98043.22;;;28.17;34.19
13767;BME280;47980;48.794;9.176;2023-07-22T12:53:13;98045.03;;;28.54;34.64
13767;BME280;47980;48.794;9.176;2023-07-22T12:55:45;98046.31;;;27.84;34.50
13767;BME280;47980;48.794;9.176;2023-07-22T12:58:16;98040.09;;;26.72;36.48
13767;BME280;47980;48.794;9.176;2023-07-22T13:00:48;98051.09;;;26.94;35.75
13767;BME280;47980;48.794;9.176;2023-07-22T13:03:19;98043.16;;;27.25;35.56
13767;BME280;47980;48.794;9.176;2023-07-22T13:05:52;98036.00;;;28.01;35.37
13767;BME280;47980;48.794;9.176;2023-07-22T13:08:24;98037.97;;;28.22;35.05
13767;BME280;47980;48.794;9.176;2023-07-22T13:10:55;98035.16;;;27.91;34.97
13767;BME280;47980;48.794;9.176;2023-07-22T13:13:26;98036.72;;;27.19;36.65
13767;BME280;47980;48.794;9.176;2023-07-22T13:15:58;98031.69;;;27.30;36.74
13767;BME280;47980;48.794;9.176;2023-07-22T13:18:29;98028.13;;;27.68;35.65
13767;BME280;47980;48.794;9.176;2023-07-22T13:21:02;98023.75;;;27.10;35.03
13767;BME280;47980;48.794;9.176;2023-07-22T13:23:34;98019.28;;;27.04;36.54
13767;BME280;47980;48.794;9.176;2023-07-22T13:26:05;98018.91;;;28.10;34.10